createdAt,value
2022-12-23T00:00:45.691Z,32.30
2022-12-23T00:03:13.682Z,31.30
2022-12-23T00:05:41.683Z,33.70
2022-12-23T00:08:09.278Z,32.55
2022-12-23T00:10:40.387Z,33.08
2022-12-23T00:13:27.803Z,33.88
2022-12-23T00:16:07.455Z,33.45
2022-12-23T00:18:35.968Z,34.92
2022-12-23T00:21:08.956Z,36.10
2022-12-23T00:23:42.084Z,34.75
2022-12-23T00:26:14.776Z,36.00
2022-12-23T00:28:42.644Z,35.90
2022-12-23T00:31:11.463Z,34.08
2022-12-23T00:33:43.343Z,37.05
2022-12-23T00:36:21.639Z,33.58
2022-12-23T00:39:08.185Z,33.65
2022-12-23T00:41:54.601Z,34.85
2022-12-23T00:44:22.873Z,32.25
2022-12-23T00:46:51.024Z,35.90
2022-12-23T00:49:38.065Z,34.88
2022-12-23T00:52:06.974Z,35.45
2022-12-23T00:54:34.990Z,35.90
2022-12-23T00:57:02.889Z,34.53
2022-12-23T00:59:30.725Z,35.28
2022-12-23T01:02:16.897Z,32.90
2022-12-23T01:05:03.732Z,32.55
2022-12-23T01:07:31.858Z,33.83
2022-12-23T01:09:59.845Z,40.47
2022-12-23T01:12:27.789Z,34.17
2022-12-23T01:14:55.751Z,38.22
2022-12-23T01:17:23.808Z,35.33
2022-12-23T01:19:51.631Z,37.17
2022-12-23T01:22:19.210Z,35.78
2022-12-23T01:24:47.138Z,36.92
2022-12-23T01:27:14.977Z,37.65
2022-12-23T01:29:42.792Z,36.47
2022-12-23T01:32:10.797Z,33.83
2022-12-23T01:34:38.291Z,35.03
2022-12-23T01:37:06.476Z,37.47
2022-12-23T01:39:34.258Z,34.08
2022-12-23T01:42:20.712Z,36.30
2022-12-23T01:44:57.108Z,37.92
2022-12-23T01:47:41.562Z,36.38
2022-12-23T01:50:15.914Z,38.60
2022-12-23T01:52:49.658Z,38.10
2022-12-23T01:55:19.894Z,38.67
2022-12-23T01:57:48.250Z,37.78
2022-12-23T02:00:34.805Z,33.75
2022-12-23T02:03:21.364Z,36.75
2022-12-23T02:05:50.081Z,34.53
2022-12-23T02:08:50.834Z,29.73
2022-12-23T02:11:43.139Z,32.25
2022-12-23T02:14:30.165Z,30.80
2022-12-23T02:17:04.267Z,32.33
2022-12-23T02:19:51.832Z,31.60
2022-12-23T02:22:54.567Z,32.35
2022-12-23T02:25:22.467Z,31.35
2022-12-23T02:28:18.764Z,33.70
2022-12-23T02:30:53.069Z,34.90
2022-12-23T02:33:50.673Z,34.30
2022-12-23T02:36:36.662Z,32.45
2022-12-23T02:39:09.393Z,29.63
2022-12-23T02:41:43.130Z,31.88
2022-12-23T02:44:14.850Z,31.75
2022-12-23T02:46:57.959Z,33.20
2022-12-23T02:49:34.446Z,26.30
2022-12-23T02:52:07.655Z,30.20
2022-12-23T02:54:41.143Z,30.95
2022-12-23T02:57:09.647Z,31.48
2022-12-23T02:59:43.331Z,32.05
2022-12-23T03:02:11.392Z,29.15
2022-12-23T03:04:40.463Z,34.40
2022-12-23T03:07:18.239Z,28.85
2022-12-23T03:09:49.192Z,28.45
2022-12-23T03:12:29.157Z,26.70
2022-12-23T03:15:48.274Z,29.05
2022-12-23T03:18:44.827Z,27.58
2022-12-23T03:21:12.790Z,25.02
2022-12-23T03:23:55.227Z,26.63
2022-12-23T03:26:34.455Z,28.77
2022-12-23T03:29:15.538Z,23.50
2022-12-23T03:31:44.248Z,24.92
2022-12-23T03:34:15.080Z,24.60
2022-12-23T03:36:45.205Z,22.50
2022-12-23T03:39:18.458Z,24.45
2022-12-23T03:41:52.823Z,24.45
2022-12-23T03:44:23.423Z,23.60
2022-12-23T03:46:54.406Z,24.42
2022-12-23T03:49:25.171Z,23.35
2022-12-23T03:52:07.571Z,23.23
2022-12-23T03:54:53.026Z,24.83
2022-12-23T03:57:24.767Z,22.50
2022-12-23T03:59:53.415Z,23.45
2022-12-23T04:02:25.431Z,23.50
2022-12-23T04:05:08.823Z,24.20
2022-12-23T04:08:02.980Z,24.88
2022-12-23T04:10:31.505Z,25.65
2022-12-23T04:12:59.463Z,23.90
2022-12-23T04:15:27.980Z,25.85
2022-12-23T04:20:38.861Z,23.20
2022-12-23T04:23:06.290Z,22.75
2022-12-23T04:25:34.200Z,23.52
2022-12-23T04:28:02.085Z,23.38
2022-12-23T04:30:34.238Z,23.35
2022-12-23T04:33:03.189Z,25.15
2022-12-23T04:35:31.400Z,23.88
2022-12-23T04:37:59.294Z,25.70
2022-12-23T04:40:27.111Z,28.50
2022-12-23T04:42:54.945Z,28.88
2022-12-23T04:45:22.734Z,29.95
2022-12-23T04:47:50.182Z,29.50
2022-12-23T04:50:18.120Z,29.45
2022-12-23T04:52:46.011Z,31.73
2022-12-23T04:55:13.583Z,29.52
2022-12-23T04:57:41.193Z,28.17
2022-12-23T05:00:09.452Z,29.25
2022-12-23T05:02:37.498Z,30.83
2022-12-23T05:05:05.340Z,29.30
2022-12-23T05:07:33.388Z,29.48
2022-12-23T05:10:02.157Z,31.83
2022-12-23T05:12:30.429Z,27.67
2022-12-23T05:14:58.030Z,32.15
2022-12-23T05:17:25.763Z,30.60
2022-12-23T05:19:53.337Z,28.42
2022-12-23T05:22:21.264Z,27.80
2022-12-23T05:24:49.266Z,28.52
2022-12-23T05:27:17.159Z,26.55
2022-12-23T05:29:45.042Z,29.23
2022-12-23T05:32:12.929Z,26.85
2022-12-23T05:34:40.733Z,26.92
2022-12-23T05:37:08.750Z,24.92
2022-12-23T05:39:36.657Z,26.83
2022-12-23T05:42:04.240Z,23.02
2022-12-23T05:44:32.282Z,25.08
2022-12-23T05:47:00.040Z,25.70
2022-12-23T05:49:27.596Z,22.45
2022-12-23T05:51:55.534Z,24.13
2022-12-23T05:54:23.439Z,24.70
2022-12-23T05:56:51.295Z,22.55
2022-12-23T05:59:19.713Z,23.25
2022-12-23T06:01:47.302Z,23.48
2022-12-23T06:04:15.432Z,22.65
2022-12-23T06:06:43.254Z,24.67
2022-12-23T06:09:11.128Z,22.13
2022-12-23T06:11:38.930Z,22.23
2022-12-23T06:14:07.514Z,22.98
2022-12-23T06:16:35.516Z,23.40
2022-12-23T06:19:03.432Z,21.58
2022-12-23T06:21:31.974Z,22.08
2022-12-23T06:23:59.782Z,24.83
2022-12-23T06:26:27.368Z,28.25
2022-12-23T06:28:55.309Z,27.67
2022-12-23T06:31:23.193Z,26.45
2022-12-23T06:33:50.991Z,28.08
2022-12-23T06:36:18.871Z,24.42
2022-12-23T06:38:46.889Z,25.60
2022-12-23T06:41:14.723Z,26.40
2022-12-23T06:43:42.180Z,23.92
2022-12-23T06:46:09.841Z,25.40
2022-12-23T06:48:37.812Z,23.05
2022-12-23T06:51:05.754Z,23.42
2022-12-23T06:53:33.563Z,22.15
2022-12-23T06:56:01.833Z,24.13
2022-12-23T06:58:29.808Z,22.98
2022-12-23T07:00:57.833Z,23.00
2022-12-23T07:03:25.409Z,19.67
2022-12-23T07:05:53.730Z,21.05
2022-12-23T07:08:21.652Z,20.58
2022-12-23T07:10:49.122Z,18.02
2022-12-23T07:13:17.027Z,18.08
2022-12-23T07:15:44.889Z,18.95
2022-12-23T07:18:12.779Z,18.90
2022-12-23T07:20:40.282Z,17.17
2022-12-23T07:23:08.034Z,21.85
2022-12-23T07:25:35.993Z,18.33
2022-12-23T07:28:03.816Z,19.63
2022-12-23T07:30:31.675Z,20.17
2022-12-23T07:32:59.633Z,19.20
2022-12-23T07:35:27.436Z,19.40
2022-12-23T07:37:55.970Z,19.63
2022-12-23T07:40:24.226Z,20.38
2022-12-23T07:42:56.092Z,20.30
2022-12-23T07:45:24.078Z,21.73
2022-12-23T07:47:56.791Z,21.40
2022-12-23T07:50:25.262Z,21.08
2022-12-23T07:52:53.346Z,18.55
2022-12-23T07:55:21.643Z,21.63
2022-12-23T07:57:50.254Z,20.77
2022-12-23T08:00:18.823Z,20.00
2022-12-23T08:02:46.994Z,19.83
2022-12-23T08:05:16.423Z,19.15
2022-12-23T08:07:45.302Z,20.73
2022-12-23T08:10:13.630Z,20.00
2022-12-23T08:12:41.507Z,19.42
2022-12-23T08:15:09.601Z,21.48
2022-12-23T08:17:37.424Z,20.27
2022-12-23T08:20:05.493Z,22.45
2022-12-23T08:22:33.310Z,21.27
2022-12-23T08:25:01.242Z,20.52
2022-12-23T08:27:29.198Z,22.67
2022-12-23T08:29:57.088Z,20.70
2022-12-23T08:32:27.312Z,21.50
2022-12-23T08:34:56.668Z,23.00
2022-12-23T08:37:24.627Z,22.55
2022-12-23T08:39:52.636Z,21.88
2022-12-23T08:42:21.055Z,20.73
2022-12-23T08:44:48.913Z,21.60
2022-12-23T08:47:16.900Z,20.38
2022-12-23T08:49:44.771Z,20.98
2022-12-23T08:52:13.547Z,18.08
2022-12-23T08:54:41.504Z,19.02
2022-12-23T08:57:09.687Z,17.30
2022-12-23T08:59:37.282Z,19.05
2022-12-23T09:02:05.400Z,19.23
2022-12-23T09:04:33.447Z,16.63
2022-12-23T09:07:01.246Z,17.75
2022-12-23T09:09:29.213Z,18.73
2022-12-23T09:11:57.082Z,17.70
2022-12-23T09:14:24.958Z,17.13
2022-12-23T09:16:52.846Z,17.45
2022-12-23T09:19:20.750Z,17.42
2022-12-23T09:21:48.575Z,16.40
2022-12-23T09:24:16.425Z,16.33
2022-12-23T09:26:43.988Z,16.70
2022-12-23T09:29:11.670Z,17.42
2022-12-23T09:31:39.434Z,16.15
2022-12-23T09:34:07.511Z,15.52
2022-12-23T09:36:35.348Z,16.65
2022-12-23T09:39:03.231Z,15.48
2022-12-23T09:41:31.063Z,14.02
2022-12-23T09:44:22.509Z,15.88
2022-12-23T09:46:55.556Z,14.27
2022-12-23T09:49:24.250Z,14.23
2022-12-23T09:51:55.695Z,14.93
2022-12-23T09:54:25.035Z,14.93
2022-12-23T09:56:52.816Z,14.18
2022-12-23T09:59:31.877Z,12.50
2022-12-23T10:02:20.105Z,12.20
2022-12-23T10:05:08.295Z,12.63
2022-12-23T10:07:39.242Z,11.60
2022-12-23T10:10:14.219Z,12.13
2022-12-23T10:12:44.495Z,11.55
2022-12-23T10:15:35.773Z,11.75
2022-12-23T10:18:09.504Z,11.23
2022-12-23T10:20:41.463Z,10.20
2022-12-23T10:23:16.874Z,9.48
2022-12-23T10:25:50.384Z,9.13
2022-12-23T10:28:18.398Z,10.30
2022-12-23T10:31:38.790Z,10.38
2022-12-23T10:34:14.230Z,10.10
2022-12-23T10:36:50.330Z,10.65
2022-12-23T10:39:43.347Z,9.90
2022-12-23T10:42:35.850Z,8.95
2022-12-23T10:45:27.661Z,9.77
2022-12-23T10:48:14.579Z,9.02
2022-12-23T10:51:21.015Z,10.30
2022-12-23T10:53:48.863Z,8.35
2022-12-23T10:56:16.859Z,8.00
2022-12-23T10:58:46.208Z,9.50
2022-12-23T11:01:23.830Z,10.50
2022-12-23T11:04:04.055Z,9.73
2022-12-23T11:06:37.189Z,10.13
2022-12-23T11:09:06.295Z,8.68
2022-12-23T11:11:53.716Z,8.02
2022-12-23T11:14:42.787Z,7.85
2022-12-23T11:17:26.276Z,7.85
2022-12-23T11:20:14.726Z,7.97
2022-12-23T11:22:53.045Z,7.78
2022-12-23T11:25:29.317Z,6.38
2022-12-23T11:27:59.237Z,5.97
2022-12-23T11:30:27.516Z,5.53
2022-12-23T11:32:55.582Z,5.40
2022-12-23T11:35:33.588Z,4.53
2022-12-23T11:38:02.663Z,5.15
2022-12-23T11:40:33.093Z,5.22
2022-12-23T11:43:03.297Z,4.68
2022-12-23T11:45:35.081Z,4.70
2022-12-23T11:50:37.500Z,4.57
2022-12-23T11:53:13.031Z,3.92
2022-12-23T11:55:45.827Z,3.55
2022-12-23T11:58:19.267Z,3.25
2022-12-23T12:00:55.558Z,4.03
2022-12-23T12:03:27.000Z,3.35
2022-12-23T12:06:03.179Z,3.58
2022-12-23T12:08:33.249Z,3.60
2022-12-23T12:11:03.147Z,2.85
2022-12-23T12:13:33.462Z,2.90
2022-12-23T12:16:01.262Z,3.85
2022-12-23T12:18:29.219Z,3.47
2022-12-23T12:21:02.826Z,2.92
2022-12-23T12:24:08.216Z,3.10
2022-12-23T12:26:39.062Z,3.10
2022-12-23T12:29:28.818Z,3.30
2022-12-23T12:32:00.056Z,3.47
2022-12-23T12:34:37.352Z,3.55
2022-12-23T12:37:09.029Z,3.65
2022-12-23T12:42:25.761Z,3.05
2022-12-23T12:45:01.170Z,3.15
2022-12-23T12:50:29.293Z,3.90
2022-12-23T12:53:02.413Z,3.97
2022-12-23T12:55:31.620Z,3.97
2022-12-23T12:58:02.807Z,3.83
2022-12-23T13:00:37.085Z,4.50
2022-12-23T13:03:17.067Z,3.88
2022-12-23T13:05:49.964Z,4.60
2022-12-23T13:08:31.462Z,4.57
2022-12-23T13:11:05.469Z,5.32
2022-12-23T13:13:44.821Z,5.15
2022-12-23T13:16:19.133Z,5.40
2022-12-23T13:18:53.334Z,4.43
2022-12-23T13:21:45.779Z,4.55
2022-12-23T13:24:20.648Z,5.20
2022-12-23T13:27:00.684Z,5.22
2022-12-23T13:29:46.820Z,5.80
2022-12-23T13:32:37.999Z,5.28
2022-12-23T13:35:44.692Z,4.88
2022-12-23T13:38:17.873Z,5.22
2022-12-23T13:41:08.625Z,5.30
2022-12-23T13:43:45.592Z,4.85
2022-12-23T13:46:35.010Z,5.00
2022-12-23T13:49:08.995Z,5.43
2022-12-23T13:51:40.843Z,6.07
2022-12-23T13:54:28.741Z,6.25
2022-12-23T13:57:08.409Z,6.38
2022-12-23T13:59:40.692Z,5.90
2022-12-23T14:02:27.091Z,5.85
2022-12-23T14:04:54.988Z,6.55
2022-12-23T14:07:23.647Z,5.07
2022-12-23T14:09:57.075Z,6.63
2022-12-23T14:12:29.529Z,7.28
2022-12-23T14:15:06.802Z,5.97
2022-12-23T14:17:52.656Z,5.28
2022-12-23T14:20:20.236Z,5.47
2022-12-23T14:22:51.107Z,5.22
2022-12-23T14:25:46.032Z,5.75
2022-12-23T14:28:21.309Z,5.40
2022-12-23T14:30:49.511Z,4.88
2022-12-23T14:33:28.564Z,5.10
2022-12-23T14:36:15.359Z,5.07
2022-12-23T14:38:43.443Z,6.15
2022-12-23T14:41:23.335Z,5.63
2022-12-23T14:43:56.291Z,6.05
2022-12-23T14:46:47.261Z,6.03
2022-12-23T14:49:40.133Z,6.30
2022-12-23T14:52:27.152Z,5.90
2022-12-23T14:55:28.555Z,5.25
2022-12-23T14:57:43.532Z,5.80
2022-12-23T15:00:11.598Z,4.80
2022-12-23T15:02:43.913Z,5.07
2022-12-23T15:05:12.834Z,6.78
2022-12-23T15:07:44.612Z,5.65
2022-12-23T15:12:43.761Z,6.18
2022-12-23T15:15:14.788Z,5.10
2022-12-23T15:17:42.776Z,5.60
2022-12-23T15:20:10.248Z,6.30
2022-12-23T15:22:38.885Z,6.43
2022-12-23T15:25:19.190Z,5.97
2022-12-23T15:27:47.213Z,7.00
2022-12-23T15:30:15.935Z,6.70
2022-12-23T15:32:45.095Z,8.32
2022-12-23T15:35:22.983Z,7.95
2022-12-23T15:37:51.549Z,6.85
2022-12-23T15:40:33.658Z,6.22
2022-12-23T15:43:02.680Z,7.15
2022-12-23T15:45:33.248Z,7.22
2022-12-23T15:48:02.958Z,7.03
2022-12-23T15:50:31.522Z,6.47
2022-12-23T15:53:05.026Z,6.70
2022-12-23T15:55:33.688Z,6.88
2022-12-23T15:58:04.293Z,7.07
2022-12-23T16:00:37.319Z,8.77
2022-12-23T16:03:08.917Z,7.88
2022-12-23T16:05:42.150Z,9.00
2022-12-23T16:08:12.023Z,9.00
2022-12-23T16:10:40.810Z,8.88
2022-12-23T16:13:20.290Z,8.45
2022-12-23T16:15:48.054Z,8.05
2022-12-23T16:18:21.972Z,5.95
2022-12-23T16:20:54.942Z,6.45
2022-12-23T16:23:23.665Z,7.68
2022-12-23T16:25:53.406Z,6.00
2022-12-23T16:28:24.338Z,5.70
2022-12-23T16:30:54.003Z,6.35
2022-12-23T16:33:24.820Z,5.90
2022-12-23T16:35:56.245Z,6.23
2022-12-23T16:38:26.587Z,6.47
2022-12-23T16:40:55.729Z,6.32
2022-12-23T16:43:24.841Z,6.78
2022-12-23T16:45:55.200Z,7.47
2022-12-23T16:48:31.423Z,7.47
2022-12-23T16:51:00.658Z,8.05
2022-12-23T16:53:28.108Z,8.52
2022-12-23T16:56:00.571Z,8.85
2022-12-23T16:58:29.583Z,9.45
2022-12-23T17:00:58.017Z,8.85
2022-12-23T17:03:25.604Z,11.15
2022-12-23T17:05:53.161Z,10.68
2022-12-23T17:08:21.200Z,10.25
2022-12-23T17:10:49.168Z,9.63
2022-12-23T17:13:17.946Z,8.95
2022-12-23T17:15:46.585Z,10.57
2022-12-23T17:18:15.781Z,9.93
2022-12-23T17:20:46.910Z,10.00
2022-12-23T17:25:42.907Z,6.80
2022-12-23T17:28:11.080Z,7.22
2022-12-23T17:30:41.045Z,5.53
2022-12-23T17:33:18.005Z,5.90
2022-12-23T17:35:45.700Z,4.05
2022-12-23T17:38:14.043Z,3.60
2022-12-23T17:40:42.561Z,3.55
2022-12-23T17:43:13.435Z,4.32
2022-12-23T17:45:41.395Z,3.58
2022-12-23T17:48:19.735Z,3.72
2022-12-23T17:50:49.695Z,2.63
2022-12-23T17:53:18.894Z,2.53
2022-12-23T17:55:46.914Z,3.65
2022-12-23T17:58:16.068Z,4.00
2022-12-23T18:00:43.629Z,2.05
2022-12-23T18:03:21.275Z,2.47
2022-12-23T18:05:49.155Z,3.17
2022-12-23T18:08:17.042Z,3.47
2022-12-23T18:10:45.626Z,2.42
2022-12-23T18:13:17.835Z,5.05
2022-12-23T18:15:46.132Z,4.13
2022-12-23T18:18:22.205Z,3.08
2022-12-23T18:20:56.937Z,2.58
2022-12-23T18:23:29.412Z,2.28
2022-12-23T18:25:58.064Z,2.58
2022-12-23T18:28:26.619Z,2.17
2022-12-23T18:30:56.443Z,4.25
2022-12-23T18:33:28.727Z,4.05
2022-12-23T18:35:56.867Z,2.25
2022-12-23T18:38:24.848Z,3.85
2022-12-23T18:40:54.352Z,4.82
2022-12-23T18:43:23.437Z,3.83
2022-12-23T18:45:53.508Z,3.33
2022-12-23T18:48:22.013Z,6.05
2022-12-23T18:50:49.878Z,2.95
2022-12-23T18:53:23.934Z,4.43
2022-12-23T18:55:53.543Z,4.45
2022-12-23T18:58:21.917Z,4.93
2022-12-23T19:00:52.607Z,4.63
2022-12-23T19:03:22.193Z,4.20
2022-12-23T19:05:50.423Z,3.55
2022-12-23T19:08:25.395Z,3.85
2022-12-23T19:10:54.934Z,3.58
2022-12-23T19:13:23.153Z,6.10
2022-12-23T19:15:51.084Z,5.22
2022-12-23T19:18:20.786Z,7.88
2022-12-23T19:20:49.141Z,4.95
2022-12-23T19:23:17.308Z,6.43
2022-12-23T19:25:52.690Z,4.72
2022-12-23T19:28:23.282Z,4.75
2022-12-23T19:30:51.210Z,6.88
2022-12-23T19:33:19.260Z,5.82
2022-12-23T19:35:47.059Z,5.07
2022-12-23T19:38:14.924Z,6.15
2022-12-23T19:40:42.336Z,5.80
2022-12-23T19:43:10.762Z,6.63
2022-12-23T19:45:38.197Z,5.90
2022-12-23T19:48:06.050Z,6.35
2022-12-23T19:50:33.945Z,7.38
2022-12-23T19:53:01.989Z,5.78
2022-12-23T19:55:29.435Z,6.20
2022-12-23T19:57:57.563Z,6.55
2022-12-23T20:00:25.459Z,6.18
2022-12-23T20:02:58.742Z,5.82
2022-12-23T20:05:27.154Z,4.07
2022-12-23T20:07:54.956Z,4.97
2022-12-23T20:10:22.818Z,6.93
2022-12-23T20:12:50.627Z,4.50
2022-12-23T20:15:18.178Z,5.60
2022-12-23T20:17:45.724Z,4.05
2022-12-23T20:20:13.982Z,5.15
2022-12-23T20:22:41.421Z,5.43
2022-12-23T20:25:09.482Z,4.75
2022-12-23T20:27:38.777Z,4.97
2022-12-23T20:30:07.020Z,4.55
2022-12-23T20:32:34.836Z,4.63
2022-12-23T20:35:02.743Z,5.57
2022-12-23T20:37:30.389Z,5.85
2022-12-23T20:39:58.115Z,5.57
2022-12-23T20:42:27.629Z,4.97
2022-12-23T20:44:55.202Z,5.20
2022-12-23T20:47:23.210Z,5.13
2022-12-23T20:49:51.186Z,4.50
2022-12-23T20:52:18.976Z,6.00
2022-12-23T20:54:46.863Z,5.50
2022-12-23T20:57:14.729Z,4.13
2022-12-23T20:59:42.331Z,5.85
2022-12-23T21:02:13.269Z,6.30
2022-12-23T21:04:41.343Z,5.05
2022-12-23T21:07:09.175Z,5.63
2022-12-23T21:09:37.076Z,6.05
2022-12-23T21:12:05.029Z,4.03
2022-12-23T21:14:32.953Z,5.53
2022-12-23T21:17:01.195Z,5.32
2022-12-23T21:19:29.208Z,4.93
2022-12-23T21:21:57.482Z,4.60
2022-12-23T21:24:25.713Z,4.63
2022-12-23T21:26:56.870Z,5.85
2022-12-23T21:29:25.448Z,4.43
2022-12-23T21:31:53.373Z,4.63
2022-12-23T21:34:21.392Z,7.45
2022-12-23T21:36:49.264Z,6.45
2022-12-23T21:39:17.610Z,7.13
2022-12-23T21:41:46.035Z,4.57
2022-12-23T21:44:15.006Z,4.50
2022-12-23T21:46:43.233Z,7.35
2022-12-23T21:49:11.504Z,7.28
2022-12-23T21:51:41.084Z,5.70
2022-12-23T21:54:10.921Z,5.15
2022-12-23T21:56:40.007Z,4.32
2022-12-23T21:59:09.390Z,5.18
2022-12-23T22:01:37.295Z,5.00
2022-12-23T22:04:05.450Z,3.90
2022-12-23T22:06:38.686Z,5.45
2022-12-23T22:09:07.304Z,5.32
2022-12-23T22:11:35.908Z,5.97
2022-12-23T22:14:06.339Z,5.13
2022-12-23T22:16:35.377Z,5.00
2022-12-23T22:19:04.858Z,4.55
2022-12-23T22:21:33.338Z,4.72
2022-12-23T22:24:01.236Z,4.63
2022-12-23T22:26:30.486Z,5.90
2022-12-23T22:29:00.916Z,6.70
2022-12-23T22:31:42.589Z,6.88
2022-12-23T22:36:42.903Z,5.55
2022-12-23T22:39:17.730Z,4.97
2022-12-23T22:41:48.358Z,5.70
2022-12-23T22:44:16.571Z,4.65
2022-12-23T22:46:44.436Z,6.15
2022-12-23T22:49:13.567Z,6.65
2022-12-23T22:51:42.051Z,5.40
2022-12-23T22:54:09.952Z,4.15
2022-12-23T22:56:37.608Z,4.70
2022-12-23T22:59:05.739Z,5.25
2022-12-23T23:01:34.973Z,7.30
2022-12-23T23:04:04.925Z,6.03
2022-12-23T23:06:37.638Z,5.65
2022-12-23T23:09:06.837Z,6.40
2022-12-23T23:11:34.703Z,5.70
2022-12-23T23:14:02.297Z,5.85
2022-12-23T23:16:30.130Z,4.35
2022-12-23T23:19:01.755Z,5.93
2022-12-23T23:21:29.520Z,5.68
2022-12-23T23:23:57.512Z,5.35
2022-12-23T23:26:27.351Z,7.07
2022-12-23T23:28:55.819Z,5.20
2022-12-23T23:34:13.198Z,4.95
2022-12-23T23:36:41.369Z,5.00
2022-12-23T23:39:09.835Z,4.47
2022-12-23T23:41:37.530Z,4.65
2022-12-23T23:44:05.342Z,4.35
2022-12-23T23:46:33.717Z,6.95
2022-12-23T23:49:02.977Z,5.00
2022-12-23T23:51:31.006Z,4.35
2022-12-23T23:53:58.929Z,4.65
2022-12-23T23:56:31.123Z,5.30
2022-12-23T23:59:01.826Z,4.40
